createdAt,value
2018-08-18T00:00:24.088Z,71.20
2018-08-18T00:02:52.612Z,71.50
2018-08-18T00:05:21.129Z,71.60
2018-08-18T00:07:49.586Z,71.40
2018-08-18T00:10:20.830Z,71.40
2018-08-18T00:12:49.270Z,71.40
2018-08-18T00:15:17.833Z,71.50
2018-08-18T00:17:46.446Z,71.60
2018-08-18T00:20:18.146Z,71.50
2018-08-18T00:22:47.013Z,71.60
2018-08-18T00:25:15.592Z,71.50
2018-08-18T00:27:44.259Z,71.20
2018-08-18T00:30:28.527Z,71.30
2018-08-18T00:32:57.277Z,71.10
2018-08-18T00:35:25.686Z,71.40
2018-08-18T00:37:54.403Z,71.40
2018-08-18T00:40:24.007Z,71.60
2018-08-18T00:42:52.493Z,71.90
2018-08-18T00:45:21.154Z,71.80
2018-08-18T00:47:50.631Z,71.60
2018-08-18T00:50:33.654Z,72.00
2018-08-18T00:53:02.501Z,72.10
2018-08-18T00:55:31.534Z,72.20
2018-08-18T00:58:00.238Z,72.50
2018-08-18T01:00:28.731Z,72.40
2018-08-18T01:02:58.978Z,72.40
2018-08-18T01:05:27.478Z,72.70
2018-08-18T01:07:56.332Z,72.90
2018-08-18T01:10:24.801Z,73.00
2018-08-18T01:12:53.317Z,73.10
2018-08-18T01:15:26.523Z,73.20
2018-08-18T01:17:55.830Z,73.30
2018-08-18T01:20:24.474Z,73.60
2018-08-18T01:22:59.851Z,73.80
2018-08-18T01:25:28.438Z,73.80
2018-08-18T01:27:57.203Z,74.00
2018-08-18T01:30:25.657Z,74.00
2018-08-18T01:32:54.297Z,74.20
2018-08-18T01:35:22.734Z,74.40
2018-08-18T01:37:51.442Z,74.50
2018-08-18T01:40:19.878Z,74.60
2018-08-18T01:42:48.399Z,74.70
2018-08-18T01:45:16.829Z,74.90
2018-08-18T01:47:45.553Z,75.10
2018-08-18T01:50:20.274Z,76.20
2018-08-18T01:52:48.834Z,75.60
2018-08-18T01:55:17.464Z,75.80
2018-08-18T01:57:47.289Z,76.10
2018-08-18T02:00:23.539Z,76.40
2018-08-18T02:02:52.247Z,76.00
2018-08-18T02:05:20.711Z,76.80
2018-08-18T02:07:49.288Z,77.10
2018-08-18T02:10:17.826Z,77.40
2018-08-18T02:12:57.890Z,77.50
2018-08-18T02:15:26.562Z,77.60
2018-08-18T02:17:55.249Z,77.70
2018-08-18T02:20:24.542Z,77.80
2018-08-18T02:22:53.205Z,78.00
2018-08-18T02:25:21.661Z,78.20
2018-08-18T02:27:50.265Z,78.40
2018-08-18T02:30:20.655Z,79.30
2018-08-18T02:32:49.345Z,78.80
2018-08-18T02:35:18.347Z,79.10
2018-08-18T02:37:46.819Z,79.30
2018-08-18T02:40:16.910Z,79.50
2018-08-18T02:42:45.469Z,79.60
2018-08-18T02:45:15.004Z,79.60
2018-08-18T02:47:43.501Z,79.80
2018-08-18T02:50:13.028Z,79.90
2018-08-18T02:52:41.455Z,80.00
2018-08-18T02:55:11.170Z,80.10
2018-08-18T02:57:41.709Z,80.30
2018-08-18T03:00:27.001Z,80.50
2018-08-18T03:02:55.435Z,80.60
2018-08-18T03:05:24.635Z,80.80
2018-08-18T03:07:53.528Z,81.00
2018-08-18T03:10:25.510Z,81.10
2018-08-18T03:12:56.982Z,81.20
2018-08-18T03:16:05.393Z,81.40
2018-08-18T03:18:36.992Z,81.60
2018-08-18T03:21:05.747Z,81.60
2018-08-18T03:23:34.929Z,81.80
2018-08-18T03:26:03.439Z,82.00
2018-08-18T03:28:38.462Z,82.10
2018-08-18T03:31:07.344Z,82.30
2018-08-18T03:33:35.808Z,82.30
2018-08-18T03:36:36.775Z,82.50
2018-08-18T03:39:13.094Z,82.30
2018-08-18T03:41:42.013Z,82.40
2018-08-18T03:44:10.455Z,82.50
2018-08-18T03:46:38.903Z,82.50
2018-08-18T03:49:07.415Z,82.70
2018-08-18T03:51:41.215Z,83.00
2018-08-18T03:54:09.641Z,83.10
2018-08-18T03:56:38.231Z,83.40
2018-08-18T03:59:06.639Z,83.40
2018-08-18T04:01:42.813Z,83.50
2018-08-18T04:04:13.665Z,83.10
2018-08-18T04:06:43.790Z,83.80
2018-08-18T04:09:15.106Z,83.00
2018-08-18T04:11:43.706Z,83.00
2018-08-18T04:14:12.309Z,83.50
2018-08-18T04:16:45.740Z,83.80
2018-08-18T04:19:15.520Z,84.10
2018-08-18T04:21:44.101Z,84.60
2018-08-18T04:24:12.784Z,85.00
2018-08-18T04:26:41.398Z,85.30
2018-08-18T04:29:09.839Z,85.80
2018-08-18T04:31:38.563Z,86.00
2018-08-18T04:34:08.119Z,86.40
2018-08-18T04:36:36.756Z,86.90
2018-08-18T04:39:10.519Z,87.20
2018-08-18T04:41:39.432Z,87.20
2018-08-18T04:44:07.993Z,87.20
2018-08-18T04:46:36.806Z,87.20
2018-08-18T04:49:05.953Z,87.10
2018-08-18T04:51:34.808Z,87.00
2018-08-18T04:54:04.462Z,87.00
2018-08-18T04:56:32.989Z,86.70
2018-08-18T04:59:01.646Z,86.70
2018-08-18T05:01:30.095Z,86.60
2018-08-18T05:04:01.499Z,86.50
2018-08-18T05:06:31.428Z,86.30
2018-08-18T05:09:01.186Z,86.20
2018-08-18T05:11:30.284Z,86.10
2018-08-18T05:13:59.240Z,85.90
2018-08-18T05:16:28.082Z,85.90
2018-08-18T05:18:56.658Z,86.00
2018-08-18T05:21:25.470Z,85.90
2018-08-18T05:23:54.112Z,85.70
2018-08-18T05:26:22.872Z,85.50
2018-08-18T05:28:51.575Z,85.30
2018-08-18T05:31:21.323Z,85.30
2018-08-18T05:33:50.082Z,85.40
2018-08-18T05:36:18.655Z,85.00
2018-08-18T05:38:47.135Z,84.60
2018-08-18T05:41:15.710Z,84.30
2018-08-18T05:43:44.268Z,84.10
2018-08-18T05:46:12.847Z,83.20
2018-08-18T05:48:41.855Z,83.70
2018-08-18T05:51:10.262Z,83.30
2018-08-18T05:53:38.800Z,83.20
2018-08-18T05:56:07.253Z,83.30
2018-08-18T05:58:50.167Z,82.60
2018-08-18T06:01:26.286Z,82.40
2018-08-18T06:04:11.431Z,82.20
2018-08-18T06:06:40.566Z,82.20
2018-08-18T06:09:11.094Z,82.00
2018-08-18T06:11:39.690Z,82.00
2018-08-18T06:14:08.886Z,81.60
2018-08-18T06:16:37.316Z,81.30
2018-08-18T06:19:06.084Z,81.00
2018-08-18T06:21:34.834Z,80.90
2018-08-18T06:24:03.561Z,80.00
2018-08-18T06:26:32.042Z,80.30
2018-08-18T06:29:00.822Z,79.50
2018-08-18T06:31:29.260Z,79.50
2018-08-18T06:33:57.701Z,79.80
2018-08-18T06:36:26.349Z,80.60
2018-08-18T06:38:54.848Z,80.70
2018-08-18T06:41:24.225Z,81.00
2018-08-18T06:43:52.841Z,81.30
2018-08-18T06:46:21.303Z,81.50
2018-08-18T06:48:49.794Z,81.60
2018-08-18T06:51:18.206Z,81.50
2018-08-18T06:53:48.013Z,81.10
2018-08-18T06:56:16.758Z,81.10
2018-08-18T06:58:46.274Z,80.80
2018-08-18T07:01:14.942Z,81.20
2018-08-18T07:03:47.827Z,80.30
2018-08-18T07:06:17.422Z,79.60
2018-08-18T07:08:51.442Z,79.10
2018-08-18T07:11:19.916Z,77.90
2018-08-18T07:13:48.915Z,77.50
2018-08-18T07:16:17.507Z,76.70
2018-08-18T07:18:45.991Z,76.80
2018-08-18T07:21:14.460Z,76.50
2018-08-18T07:23:43.005Z,75.70
2018-08-18T07:26:11.941Z,75.90
2018-08-18T07:28:47.281Z,74.60
2018-08-18T07:31:15.957Z,74.00
2018-08-18T07:33:44.541Z,73.50
2018-08-18T07:36:13.002Z,73.70
2018-08-18T07:38:41.467Z,73.20
2018-08-18T07:41:09.979Z,73.30
2018-08-18T07:43:38.665Z,74.00
2018-08-18T07:46:09.316Z,74.20
2018-08-18T07:48:38.057Z,74.20
2018-08-18T07:51:06.617Z,74.40
2018-08-18T07:53:35.325Z,74.70
2018-08-18T07:56:03.974Z,75.40
2018-08-18T07:58:32.439Z,75.70
2018-08-18T08:01:01.097Z,75.90
2018-08-18T08:03:30.461Z,75.00
2018-08-18T08:06:07.851Z,75.50
2018-08-18T08:08:41.711Z,75.60
2018-08-18T08:11:13.146Z,75.60
2018-08-18T08:13:42.032Z,75.00
2018-08-18T08:16:10.617Z,75.00
2018-08-18T08:18:39.336Z,75.70
2018-08-18T08:21:07.989Z,76.10
2018-08-18T08:23:36.499Z,76.50
2018-08-18T08:26:04.949Z,77.00
2018-08-18T08:28:33.441Z,77.00
2018-08-18T08:31:01.893Z,76.20
2018-08-18T08:33:38.438Z,75.20
2018-08-18T08:36:09.728Z,73.30
2018-08-18T08:38:53.322Z,73.20
2018-08-18T08:41:24.786Z,72.40
2018-08-18T08:43:53.800Z,73.10
2018-08-18T08:46:22.449Z,72.80
2018-08-18T08:48:53.347Z,71.60
2018-08-18T08:51:22.210Z,71.60
2018-08-18T08:53:51.305Z,71.20
2018-08-18T08:56:24.406Z,70.10
2018-08-18T08:58:53.000Z,70.30
2018-08-18T09:01:21.939Z,67.80
2018-08-18T09:03:51.167Z,67.30
2018-08-18T09:06:19.855Z,67.90
2018-08-18T09:08:58.063Z,68.80
2018-08-18T09:11:26.974Z,66.00
2018-08-18T09:14:08.183Z,64.40
2018-08-18T09:16:36.970Z,64.60
2018-08-18T09:19:05.447Z,70.40
2018-08-18T09:21:40.304Z,65.00
2018-08-18T09:24:09.000Z,64.50
2018-08-18T09:26:42.702Z,64.50
2018-08-18T09:29:11.830Z,65.10
2018-08-18T09:31:40.934Z,67.30
2018-08-18T09:34:09.682Z,68.30
2018-08-18T09:36:38.245Z,69.50
2018-08-18T09:39:10.306Z,69.60
2018-08-18T09:41:39.350Z,70.50
2018-08-18T09:44:14.987Z,72.00
2018-08-18T09:46:44.295Z,72.60
2018-08-18T09:49:12.927Z,72.40
2018-08-18T09:51:41.379Z,72.10
2018-08-18T09:54:10.002Z,72.60
2018-08-18T09:56:38.515Z,72.90
2018-08-18T09:59:07.079Z,73.30
2018-08-18T10:01:35.962Z,73.40
2018-08-18T10:04:04.458Z,73.60
2018-08-18T10:06:33.208Z,73.30
2018-08-18T10:09:02.480Z,73.00
2018-08-18T10:11:31.226Z,72.90
2018-08-18T10:13:59.728Z,72.80
2018-08-18T10:16:28.465Z,73.10
2018-08-18T10:18:58.472Z,73.00
2018-08-18T10:21:27.358Z,72.60
2018-08-18T10:23:56.131Z,72.40
2018-08-18T10:26:25.389Z,71.70
2018-08-18T10:29:13.735Z,71.30
2018-08-18T10:31:47.628Z,71.50
2018-08-18T10:34:17.101Z,71.90
2018-08-18T10:36:48.759Z,71.80
2018-08-18T10:39:17.186Z,71.30
2018-08-18T10:41:57.143Z,71.20
2018-08-18T10:44:25.850Z,72.00
2018-08-18T10:47:07.158Z,71.50
2018-08-18T10:49:46.917Z,70.30
2018-08-18T10:52:27.739Z,69.30
2018-08-18T10:54:56.856Z,68.80
2018-08-18T10:57:36.640Z,68.00
2018-08-18T11:00:07.105Z,67.30
2018-08-18T11:02:36.309Z,66.50
2018-08-18T11:05:05.649Z,66.30
2018-08-18T11:07:34.458Z,66.10
2018-08-18T11:10:03.110Z,66.40
2018-08-18T11:12:34.863Z,66.20
2018-08-18T11:15:04.053Z,65.30
2018-08-18T11:17:33.069Z,64.80
2018-08-18T11:20:07.104Z,64.70
2018-08-18T11:23:14.895Z,64.60
2018-08-18T11:25:46.356Z,63.50
2018-08-18T11:28:15.548Z,62.70
2018-08-18T11:30:44.290Z,62.90
2018-08-18T11:33:45.522Z,63.30
2018-08-18T11:36:14.596Z,63.50
2018-08-18T11:38:43.653Z,63.60
2018-08-18T11:41:12.623Z,63.80
2018-08-18T11:43:46.122Z,63.60
2018-08-18T11:46:14.668Z,63.70
2018-08-18T11:48:43.321Z,64.30
2018-08-18T11:51:12.422Z,64.60
2018-08-18T11:53:52.385Z,64.00
2018-08-18T11:56:21.407Z,64.10
2018-08-18T11:59:02.787Z,62.60
2018-08-18T12:01:38.106Z,62.50
2018-08-18T12:04:07.373Z,61.40
2018-08-18T12:06:37.330Z,60.00
2018-08-18T12:09:06.441Z,59.30
2018-08-18T12:11:35.104Z,58.80
2018-08-18T12:14:03.911Z,58.20
2018-08-18T12:16:32.707Z,56.90
2018-08-18T12:19:01.406Z,54.50
2018-08-18T12:21:34.380Z,53.80
2018-08-18T12:24:03.447Z,53.00
2018-08-18T12:26:32.509Z,53.10
2018-08-18T12:29:01.319Z,52.80
2018-08-18T12:31:29.851Z,52.40
2018-08-18T12:33:58.562Z,51.10
2018-08-18T12:36:27.381Z,51.80
2018-08-18T12:38:57.445Z,51.60
2018-08-18T12:41:25.950Z,51.10
2018-08-18T12:43:56.005Z,51.00
2018-08-18T12:46:34.461Z,51.30
2018-08-18T12:49:05.105Z,50.60
2018-08-18T12:51:33.722Z,50.80
2018-08-18T12:54:02.436Z,51.20
2018-08-18T12:56:31.547Z,51.30
2018-08-18T12:59:00.220Z,51.20
2018-08-18T13:01:39.679Z,50.50
2018-08-18T13:04:10.374Z,50.20
2018-08-18T13:06:44.709Z,50.00
2018-08-18T13:09:14.690Z,49.40
2018-08-18T13:11:44.700Z,49.00
2018-08-18T13:14:16.360Z,48.30
2018-08-18T13:16:45.844Z,48.40
2018-08-18T13:19:16.734Z,46.80
2018-08-18T13:21:45.645Z,45.30
2018-08-18T13:24:14.687Z,44.80
2018-08-18T13:26:43.892Z,45.10
2018-08-18T13:29:13.700Z,43.20
2018-08-18T13:31:44.496Z,42.40
2018-08-18T13:34:15.695Z,42.30
2018-08-18T13:36:45.793Z,42.40
2018-08-18T13:39:18.735Z,42.20
2018-08-18T13:41:48.585Z,42.50
2018-08-18T13:44:23.836Z,41.80
2018-08-18T13:46:52.667Z,42.00
2018-08-18T13:49:24.524Z,43.50
2018-08-18T13:51:53.890Z,43.80
2018-08-18T13:54:22.784Z,41.60
2018-08-18T13:56:51.591Z,41.50
2018-08-18T13:59:46.952Z,41.40
2018-08-18T14:02:16.009Z,41.20
2018-08-18T14:04:44.932Z,40.70
2018-08-18T14:07:14.302Z,40.20
2018-08-18T14:09:44.726Z,39.90
2018-08-18T14:12:17.505Z,39.80
2018-08-18T14:14:47.947Z,39.00
2018-08-18T14:17:20.146Z,38.20
2018-08-18T14:19:49.651Z,37.40
2018-08-18T14:22:19.348Z,37.00
2018-08-18T14:24:49.527Z,36.30
2018-08-18T14:27:21.001Z,36.20
2018-08-18T14:29:49.849Z,36.30
2018-08-18T14:32:24.030Z,35.60
2018-08-18T14:35:07.042Z,36.20
2018-08-18T14:37:37.106Z,36.60
2018-08-18T14:40:08.318Z,35.90
2018-08-18T14:42:37.001Z,35.30
2018-08-18T14:45:05.669Z,34.20
2018-08-18T14:47:34.687Z,34.90
2018-08-18T14:50:15.224Z,35.40
2018-08-18T14:52:45.393Z,36.00
2018-08-18T14:55:14.596Z,36.40
2018-08-18T14:57:49.066Z,36.00
2018-08-18T15:00:17.780Z,35.70
2018-08-18T15:02:46.928Z,35.90
2018-08-18T15:05:15.730Z,35.00
2018-08-18T15:07:50.101Z,35.80
2018-08-18T15:10:31.783Z,34.30
2018-08-18T15:13:01.159Z,32.40
2018-08-18T15:15:33.459Z,31.40
2018-08-18T15:18:05.039Z,31.80
2018-08-18T15:20:34.728Z,32.80
2018-08-18T15:23:04.125Z,33.60
2018-08-18T15:25:34.048Z,34.70
2018-08-18T15:28:04.895Z,35.40
2018-08-18T15:30:34.460Z,36.10
2018-08-18T15:33:03.131Z,36.10
2018-08-18T15:35:33.742Z,36.10
2018-08-18T15:38:02.447Z,36.20
2018-08-18T15:40:31.171Z,38.20
2018-08-18T15:43:00.747Z,39.70
2018-08-18T15:45:30.289Z,40.40
2018-08-18T15:47:59.094Z,41.40
2018-08-18T15:50:28.563Z,42.20
2018-08-18T15:52:57.300Z,43.10
2018-08-18T15:55:26.121Z,44.00
2018-08-18T15:57:54.885Z,44.40
2018-08-18T16:00:35.340Z,44.80
2018-08-18T16:03:04.046Z,45.60
2018-08-18T16:05:33.128Z,46.40
2018-08-18T16:08:01.867Z,47.20
2018-08-18T16:10:30.572Z,46.90
2018-08-18T16:12:59.677Z,47.10
2018-08-18T16:15:28.194Z,47.40
2018-08-18T16:17:56.900Z,47.80
2018-08-18T16:20:27.073Z,48.20
2018-08-18T16:22:57.052Z,47.70
2018-08-18T16:25:36.639Z,47.70
2018-08-18T16:28:06.411Z,48.00
2018-08-18T16:30:35.437Z,47.60
2018-08-18T16:33:12.980Z,47.30
2018-08-18T16:35:43.032Z,46.30
2018-08-18T16:38:11.947Z,45.90
2018-08-18T16:40:40.800Z,45.50
2018-08-18T16:43:10.889Z,45.60
2018-08-18T16:45:39.705Z,46.10
2018-08-18T16:48:11.935Z,46.10
2018-08-18T16:50:41.345Z,46.40
2018-08-18T16:53:11.301Z,46.60
2018-08-18T16:55:41.257Z,46.90
2018-08-18T16:58:10.132Z,47.50
2018-08-18T17:00:55.507Z,48.10
2018-08-18T17:03:34.451Z,48.70
2018-08-18T17:06:04.300Z,48.70
2018-08-18T17:08:32.997Z,48.70
2018-08-18T17:11:01.780Z,49.80
2018-08-18T17:13:35.674Z,50.60
2018-08-18T17:16:05.715Z,51.00
2018-08-18T17:18:34.199Z,51.40
2018-08-18T17:21:04.270Z,51.50
2018-08-18T17:23:34.269Z,51.50
2018-08-18T17:26:03.190Z,51.90
2018-08-18T17:28:32.432Z,52.50
2018-08-18T17:31:02.808Z,52.90
2018-08-18T17:33:32.138Z,53.30
2018-08-18T17:36:00.851Z,53.50
2018-08-18T17:38:29.938Z,53.50
2018-08-18T17:40:58.623Z,53.60
2018-08-18T17:43:27.373Z,53.80
2018-08-18T17:45:57.105Z,54.00
2018-08-18T17:48:27.254Z,54.30
2018-08-18T17:50:56.405Z,54.10
2018-08-18T17:53:26.063Z,54.30
2018-08-18T17:56:03.063Z,54.60
2018-08-18T17:58:32.028Z,54.60
2018-08-18T18:01:01.209Z,54.50
2018-08-18T18:03:30.057Z,54.70
2018-08-18T18:05:58.902Z,54.60
2018-08-18T18:08:27.982Z,55.30
2018-08-18T18:10:56.686Z,55.20
2018-08-18T18:13:28.202Z,55.90
2018-08-18T18:15:57.036Z,56.00
2018-08-18T18:18:32.737Z,56.10
2018-08-18T18:21:01.479Z,56.00
2018-08-18T18:23:30.128Z,56.50
2018-08-18T18:25:58.763Z,56.60
2018-08-18T18:28:27.466Z,56.80
2018-08-18T18:30:56.186Z,56.90
2018-08-18T18:33:26.082Z,57.50
2018-08-18T18:35:54.936Z,57.50
2018-08-18T18:38:23.986Z,58.20
2018-08-18T18:40:52.970Z,58.50
2018-08-18T18:43:21.982Z,58.70
2018-08-18T18:45:52.367Z,60.70
2018-08-18T18:48:21.220Z,58.70
2018-08-18T18:50:49.932Z,59.20
2018-08-18T18:53:19.018Z,59.50
2018-08-18T18:55:51.958Z,59.30
2018-08-18T18:58:20.950Z,59.70
2018-08-18T19:00:55.780Z,60.00
2018-08-18T19:03:25.933Z,60.80
2018-08-18T19:05:54.924Z,60.50
2018-08-18T19:08:24.056Z,60.40
2018-08-18T19:10:52.733Z,60.80
2018-08-18T19:13:21.456Z,62.10
2018-08-18T19:15:50.343Z,62.40
2018-08-18T19:18:19.223Z,62.20
2018-08-18T19:20:47.963Z,63.70
2018-08-18T19:23:17.910Z,63.90
2018-08-18T19:25:47.945Z,65.00
2018-08-18T19:28:19.172Z,65.10
2018-08-18T19:30:47.957Z,65.30
2018-08-18T19:33:17.395Z,65.80
2018-08-18T19:35:49.783Z,66.30
2018-08-18T19:38:19.477Z,66.60
2018-08-18T19:40:49.339Z,66.90
2018-08-18T19:43:22.327Z,67.40
2018-08-18T19:45:51.393Z,67.60
2018-08-18T19:48:22.698Z,67.70
2018-08-18T19:50:56.941Z,67.60
2018-08-18T19:53:28.181Z,68.10
2018-08-18T19:55:57.973Z,68.00
2018-08-18T19:58:27.263Z,67.50
2018-08-18T20:00:56.041Z,68.30
2018-08-18T20:03:26.364Z,68.40
2018-08-18T20:05:55.212Z,69.10
2018-08-18T20:08:25.090Z,69.80
2018-08-18T20:10:54.951Z,69.00
2018-08-18T20:13:24.908Z,70.20
2018-08-18T20:15:55.019Z,70.10
2018-08-18T20:18:24.478Z,70.10
2018-08-18T20:20:53.447Z,70.10
2018-08-18T20:23:22.135Z,69.00
2018-08-18T20:25:51.426Z,68.00
2018-08-18T20:28:20.035Z,67.60
2018-08-18T20:30:48.476Z,67.60
2018-08-18T20:33:17.178Z,67.50
2018-08-18T20:35:46.198Z,67.50
2018-08-18T20:38:14.645Z,67.00
2018-08-18T20:40:43.413Z,67.40
2018-08-18T20:43:12.226Z,67.80
2018-08-18T20:45:48.241Z,67.00
2018-08-18T20:48:19.225Z,67.30
2018-08-18T20:50:48.135Z,67.50
2018-08-18T20:53:17.414Z,67.50
2018-08-18T20:56:02.375Z,68.00
2018-08-18T20:58:32.879Z,68.30
2018-08-18T21:01:01.824Z,67.50
2018-08-18T21:03:45.450Z,67.40
2018-08-18T21:06:15.087Z,67.60
2018-08-18T21:08:43.695Z,67.80
2018-08-18T21:11:12.450Z,67.90
2018-08-18T21:13:41.157Z,68.10
2018-08-18T21:16:10.193Z,68.10
2018-08-18T21:18:39.007Z,68.20
2018-08-18T21:21:39.539Z,68.40
2018-08-18T21:24:08.444Z,68.40
2018-08-18T21:26:37.300Z,68.60
2018-08-18T21:29:06.272Z,68.60
2018-08-18T21:31:36.025Z,68.70
2018-08-18T21:36:37.405Z,68.90
2018-08-18T21:39:08.226Z,68.90
2018-08-18T21:41:37.318Z,69.10
2018-08-18T21:44:07.286Z,69.30
2018-08-18T21:46:36.373Z,70.00
2018-08-18T21:49:05.286Z,69.70
2018-08-18T21:51:34.408Z,69.90
2018-08-18T21:54:03.150Z,69.80
2018-08-18T21:56:37.000Z,70.00
2018-08-18T21:59:07.177Z,70.40
2018-08-18T22:01:36.124Z,70.60
2018-08-18T22:04:05.331Z,70.50
2018-08-18T22:06:33.760Z,70.70
2018-08-18T22:09:15.231Z,70.90
2018-08-18T22:11:44.159Z,70.80
2018-08-18T22:14:14.181Z,70.90
2018-08-18T22:16:47.920Z,71.00
2018-08-18T22:19:18.773Z,71.00
2018-08-18T22:21:47.202Z,71.10
2018-08-18T22:24:15.858Z,71.40
2018-08-18T22:26:44.336Z,71.50
2018-08-18T22:29:12.770Z,71.60
2018-08-18T22:31:41.211Z,71.80
2018-08-18T22:34:09.745Z,71.90
2018-08-18T22:36:38.652Z,72.00
2018-08-18T22:39:08.644Z,72.40
2018-08-18T22:41:37.505Z,72.30
2018-08-18T22:44:06.474Z,72.40
2018-08-18T22:46:35.631Z,72.50
2018-08-18T22:49:04.273Z,72.70
2018-08-18T22:51:32.731Z,73.00
2018-08-18T22:54:01.497Z,73.00
2018-08-18T22:56:35.326Z,73.20
2018-08-18T22:59:06.336Z,73.20
2018-08-18T23:01:36.035Z,73.20
2018-08-18T23:04:13.197Z,73.30
2018-08-18T23:06:41.805Z,73.40
2018-08-18T23:09:10.249Z,73.40
2018-08-18T23:11:38.961Z,73.60
2018-08-18T23:14:07.389Z,73.60
2018-08-18T23:16:35.826Z,73.70
2018-08-18T23:19:04.408Z,73.70
2018-08-18T23:21:32.824Z,74.00
2018-08-18T23:24:03.512Z,74.00
2018-08-18T23:26:32.832Z,74.10
2018-08-18T23:29:02.218Z,74.20
2018-08-18T23:31:30.642Z,74.20
2018-08-18T23:33:59.485Z,74.40
2018-08-18T23:36:27.972Z,74.40
2018-08-18T23:38:58.444Z,74.60
2018-08-18T23:41:27.001Z,74.50
2018-08-18T23:43:55.451Z,74.70
2018-08-18T23:46:23.948Z,74.70
2018-08-18T23:48:52.554Z,74.80
2018-08-18T23:51:25.155Z,75.00
2018-08-18T23:53:53.616Z,75.10
2018-08-18T23:56:23.027Z,75.40
2018-08-18T23:58:51.609Z,75.40
